Arapahoe, Colorado
Current Conditions -  °F | °C
As of 7:53 AM on Thursday 18 Dec 2014 (Local Time) from KITR Reporting Station
Clear Clear  
Wind Chill: -15°   Ceiling: Unl
Heat Index: -9°   Visibility: 10mi
Dew Point: -12°   Wind: 8mph
Humidity: 84%   Direction: 280°W
Pressure: 30.05"   Gusts: NA
Location:  38.85°N, 102.18°W
Report Text: KITR 181453Z AUTO 28007KT 10SM CLR M09/M12 A3005 RMK AO2 SLP218 I1000 I3001 T10941117 51013
Loading
Personal Weather Stations






























Interactive Weather Map New forecast layout! Learn more

10-Day Weather Forecast

Advertisements
Track Severe Weather on mobile